sensor_id;sensor_type;location;lat;lon;timestamp;pressure;altitude;pressure_sealevel;temperature;humidity
59168;BME280;44948;55.046;73.266;2023-03-25T00:02:29;100267.41;;;-1.92;82.76
59168;BME280;44948;55.046;73.266;2023-03-25T00:05:32;100285.22;;;-1.81;82.75
59168;BME280;44948;55.046;73.266;2023-03-25T00:08:35;100270.91;;;-1.95;82.66
59168;BME280;44948;55.046;73.266;2023-03-25T00:11:49;100282.78;;;-1.89;82.58
59168;BME280;44948;55.046;73.266;2023-03-25T00:14:51;100277.75;;;-1.95;82.72
59168;BME280;44948;55.046;73.266;2023-03-25T00:17:56;100285.31;;;-1.87;82.65
59168;BME280;44948;55.046;73.266;2023-03-25T00:21:04;100250.81;;;-2.21;82.89
59168;BME280;44948;55.046;73.266;2023-03-25T00:24:08;100284.66;;;-1.97;82.78
59168;BME280;44948;55.046;73.266;2023-03-25T00:27:10;100288.97;;;-1.98;82.59
59168;BME280;44948;55.046;73.266;2023-03-25T00:30:16;100294.88;;;-1.94;82.82
59168;BME280;44948;55.046;73.266;2023-03-25T00:33:19;100295.75;;;-1.95;82.78
59168;BME280;44948;55.046;73.266;2023-03-25T00:36:23;100283.06;;;-2.04;82.68
59168;BME280;44948;55.046;73.266;2023-03-25T00:39:26;100297.47;;;-1.96;82.51
59168;BME280;44948;55.046;73.266;2023-03-25T00:42:29;100299.31;;;-2.04;82.59
59168;BME280;44948;55.046;73.266;2023-03-25T00:45:32;100312.13;;;-1.99;82.58
59168;BME280;44948;55.046;73.266;2023-03-25T00:48:35;100310.47;;;-2.03;82.90
59168;BME280;44948;55.046;73.266;2023-03-25T00:51:38;100297.81;;;-2.14;82.38
59168;BME280;44948;55.046;73.266;2023-03-25T00:54:41;100291.03;;;-2.16;82.84
59168;BME280;44948;55.046;73.266;2023-03-25T00:57:45;100302.06;;;-2.11;82.58
59168;BME280;44948;55.046;73.266;2023-03-25T01:00:47;100307.97;;;-2.08;82.55
59168;BME280;44948;55.046;73.266;2023-03-25T01:03:50;100302.00;;;-2.08;82.57
59168;BME280;44948;55.046;73.266;2023-03-25T01:07:00;100293.41;;;-2.07;82.58
59168;BME280;44948;55.046;73.266;2023-03-25T01:10:14;100273.13;;;-2.23;82.69
59168;BME280;44948;55.046;73.266;2023-03-25T01:13:17;100301.19;;;-2.10;82.74
59168;BME280;44948;55.046;73.266;2023-03-25T01:16:19;100286.63;;;-2.11;82.61
59168;BME280;44948;55.046;73.266;2023-03-25T01:19:22;100229.16;;;-2.52;82.09
59168;BME280;44948;55.046;73.266;2023-03-25T01:22:24;100291.84;;;-2.14;82.43
59168;BME280;44948;55.046;73.266;2023-03-25T01:25:27;100286.69;;;-2.14;82.52
59168;BME280;44948;55.046;73.266;2023-03-25T01:28:29;100287.59;;;-2.15;82.37
59168;BME280;44948;55.046;73.266;2023-03-25T01:31:32;100287.63;;;-2.17;82.61
59168;BME280;44948;55.046;73.266;2023-03-25T01:34:37;100276.56;;;-2.22;82.29
59168;BME280;44948;55.046;73.266;2023-03-25T01:37:39;100276.53;;;-2.21;82.31
59168;BME280;44948;55.046;73.266;2023-03-25T01:40:45;100282.34;;;-2.11;82.47
59168;BME280;44948;55.046;73.266;2023-03-25T01:47:19;100271.16;;;-2.08;82.05
59168;BME280;44948;55.046;73.266;2023-03-25T01:50:23;100257.31;;;-2.01;82.28
59168;BME280;44948;55.046;73.266;2023-03-25T01:53:31;100270.75;;;-1.88;82.08
59168;BME280;44948;55.046;73.266;2023-03-25T01:56:38;100279.81;;;-1.71;81.98
59168;BME280;44948;55.046;73.266;2023-03-25T01:59:42;100288.09;;;-1.56;81.75
59168;BME280;44948;55.046;73.266;2023-03-25T02:02:45;100277.59;;;-1.46;81.86
59168;BME280;44948;55.046;73.266;2023-03-25T02:06:03;100261.28;;;-1.45;81.39
59168;BME280;44948;55.046;73.266;2023-03-25T02:09:07;100257.22;;;-1.18;81.20
59168;BME280;44948;55.046;73.266;2023-03-25T02:12:13;100277.19;;;-0.90;81.10
59168;BME280;44948;55.046;73.266;2023-03-25T02:15:16;100283.50;;;-0.68;80.74
59168;BME280;44948;55.046;73.266;2023-03-25T02:18:28;100275.31;;;-0.82;80.50
59168;BME280;44948;55.046;73.266;2023-03-25T02:28:37;100294.41;;;0.08;79.48
59168;BME280;44948;55.046;73.266;2023-03-25T02:45:51;100294.16;;;0.76;76.89
59168;BME280;44948;55.046;73.266;2023-03-25T02:49:03;100277.56;;;0.85;77.06
59168;BME280;44948;55.046;73.266;2023-03-25T02:55:20;100295.25;;;0.97;76.11
59168;BME280;44948;55.046;73.266;2023-03-25T02:58:24;100292.03;;;1.17;75.87
59168;BME280;44948;55.046;73.266;2023-03-25T03:01:28;100289.28;;;1.23;75.62
59168;BME280;44948;55.046;73.266;2023-03-25T03:04:31;100294.84;;;1.37;75.11
59168;BME280;44948;55.046;73.266;2023-03-25T03:07:34;100297.72;;;1.28;74.56
59168;BME280;44948;55.046;73.266;2023-03-25T03:20:50;100280.31;;;1.60;73.64
59168;BME280;44948;55.046;73.266;2023-03-25T03:24:04;100300.06;;;1.87;73.51
59168;BME280;44948;55.046;73.266;2023-03-25T03:30:47;100280.06;;;2.16;72.84
59168;BME280;44948;55.046;73.266;2023-03-25T03:33:56;100291.81;;;2.48;72.70
59168;BME280;44948;55.046;73.266;2023-03-25T03:37:03;100295.25;;;2.72;71.98
59168;BME280;44948;55.046;73.266;2023-03-25T03:40:15;100297.41;;;2.82;71.88
59168;BME280;44948;55.046;73.266;2023-03-25T03:43:35;100273.03;;;2.88;71.40
59168;BME280;44948;55.046;73.266;2023-03-25T03:47:02;100294.16;;;2.99;70.69
59168;BME280;44948;55.046;73.266;2023-03-25T03:50:17;100286.09;;;2.85;70.63
59168;BME280;44948;55.046;73.266;2023-03-25T03:53:42;100292.66;;;2.72;70.17
59168;BME280;44948;55.046;73.266;2023-03-25T04:00:04;100288.25;;;2.74;71.52
59168;BME280;44948;55.046;73.266;2023-03-25T04:03:21;100276.63;;;3.28;71.02
59168;BME280;44948;55.046;73.266;2023-03-25T04:06:32;100285.81;;;3.57;70.05
59168;BME280;44948;55.046;73.266;2023-03-25T04:09:59;100277.44;;;3.70;69.25
59168;BME280;44948;55.046;73.266;2023-03-25T04:13:11;100271.84;;;3.79;69.14
59168;BME280;44948;55.046;73.266;2023-03-25T04:16:15;100247.97;;;3.92;68.46
59168;BME280;44948;55.046;73.266;2023-03-25T04:19:18;100275.63;;;3.93;68.37
59168;BME280;44948;55.046;73.266;2023-03-25T04:22:26;100272.69;;;3.80;68.14
59168;BME280;44948;55.046;73.266;2023-03-25T04:25:28;100282.44;;;4.14;68.07
59168;BME280;44948;55.046;73.266;2023-03-25T04:28:33;100274.22;;;4.43;67.35
59168;BME280;44948;55.046;73.266;2023-03-25T04:31:37;100263.28;;;4.56;66.73
59168;BME280;44948;55.046;73.266;2023-03-25T04:34:47;100262.59;;;4.69;66.42
59168;BME280;44948;55.046;73.266;2023-03-25T04:37:52;100263.88;;;4.80;65.60
59168;BME280;44948;55.046;73.266;2023-03-25T04:40:55;100243.38;;;4.73;65.79
59168;BME280;44948;55.046;73.266;2023-03-25T04:43:59;100257.22;;;4.93;65.95
59168;BME280;44948;55.046;73.266;2023-03-25T04:47:01;100245.22;;;4.90;65.67
59168;BME280;44948;55.046;73.266;2023-03-25T04:50:04;100245.56;;;5.19;65.15
59168;BME280;44948;55.046;73.266;2023-03-25T04:53:10;100238.84;;;5.32;64.64
59168;BME280;44948;55.046;73.266;2023-03-25T04:56:18;100248.09;;;5.38;63.92
59168;BME280;44948;55.046;73.266;2023-03-25T04:59:23;100252.59;;;5.69;63.59
59168;BME280;44948;55.046;73.266;2023-03-25T05:02:26;100258.25;;;5.77;63.05
59168;BME280;44948;55.046;73.266;2023-03-25T05:05:28;100248.25;;;5.52;62.67
59168;BME280;44948;55.046;73.266;2023-03-25T05:08:31;100248.56;;;5.63;62.91
59168;BME280;44948;55.046;73.266;2023-03-25T05:11:36;100231.88;;;6.00;62.51
59168;BME280;44948;55.046;73.266;2023-03-25T05:14:40;100241.94;;;6.23;61.96
59168;BME280;44948;55.046;73.266;2023-03-25T05:17:43;100243.75;;;6.21;61.27
59168;BME280;44948;55.046;73.266;2023-03-25T05:20:46;100218.63;;;6.20;61.11
59168;BME280;44948;55.046;73.266;2023-03-25T05:23:51;100235.47;;;6.78;60.51
59168;BME280;44948;55.046;73.266;2023-03-25T05:26:59;100226.47;;;6.83;59.94
59168;BME280;44948;55.046;73.266;2023-03-25T05:30:04;100228.31;;;6.97;59.53
59168;BME280;44948;55.046;73.266;2023-03-25T05:33:08;100209.47;;;7.22;58.48
59168;BME280;44948;55.046;73.266;2023-03-25T05:36:14;100222.38;;;7.25;58.36
59168;BME280;44948;55.046;73.266;2023-03-25T05:39:31;100217.19;;;7.39;57.97
59168;BME280;44948;55.046;73.266;2023-03-25T05:42:35;100221.34;;;7.58;57.66
59168;BME280;44948;55.046;73.266;2023-03-25T05:45:38;100219.50;;;7.88;57.04
59168;BME280;44948;55.046;73.266;2023-03-25T05:48:41;100205.59;;;8.16;56.44
59168;BME280;44948;55.046;73.266;2023-03-25T05:51:43;100215.84;;;8.33;55.70
59168;BME280;44948;55.046;73.266;2023-03-25T05:54:47;100208.03;;;8.05;56.04
59168;BME280;44948;55.046;73.266;2023-03-25T05:57:51;100218.19;;;7.81;56.08
59168;BME280;44948;55.046;73.266;2023-03-25T06:00:54;100226.00;;;7.67;56.53
59168;BME280;44948;55.046;73.266;2023-03-25T06:03:56;100207.53;;;7.41;57.26
59168;BME280;44948;55.046;73.266;2023-03-25T06:07:04;100191.31;;;7.51;56.84
59168;BME280;44948;55.046;73.266;2023-03-25T06:10:18;100216.78;;;7.61;56.45
59168;BME280;44948;55.046;73.266;2023-03-25T06:13:20;100204.13;;;7.39;56.63
59168;BME280;44948;55.046;73.266;2023-03-25T06:16:24;100210.06;;;7.27;57.13
59168;BME280;44948;55.046;73.266;2023-03-25T06:19:30;100218.78;;;7.12;57.58
59168;BME280;44948;55.046;73.266;2023-03-25T06:22:32;100209.22;;;6.97;57.83
59168;BME280;44948;55.046;73.266;2023-03-25T06:25:38;100209.41;;;6.78;57.67
59168;BME280;44948;55.046;73.266;2023-03-25T06:28:41;100206.06;;;6.60;58.13
59168;BME280;44948;55.046;73.266;2023-03-25T06:31:43;100189.78;;;6.41;58.77
59168;BME280;44948;55.046;73.266;2023-03-25T06:34:48;100204.03;;;6.49;58.98
59168;BME280;44948;55.046;73.266;2023-03-25T06:37:51;100211.25;;;6.29;58.59
59168;BME280;44948;55.046;73.266;2023-03-25T06:41:19;100200.00;;;6.12;58.86
59168;BME280;44948;55.046;73.266;2023-03-25T06:44:27;100190.44;;;6.44;58.50
59168;BME280;44948;55.046;73.266;2023-03-25T06:47:47;100199.66;;;6.66;58.06
59168;BME280;44948;55.046;73.266;2023-03-25T06:50:50;100200.56;;;6.80;57.74
59168;BME280;44948;55.046;73.266;2023-03-25T06:53:54;100200.50;;;7.12;56.89
59168;BME280;44948;55.046;73.266;2023-03-25T06:56:56;100202.50;;;6.93;56.09
59168;BME280;44948;55.046;73.266;2023-03-25T06:59:59;100200.63;;;6.95;56.09
59168;BME280;44948;55.046;73.266;2023-03-25T07:03:02;100200.94;;;6.43;57.18
59168;BME280;44948;55.046;73.266;2023-03-25T07:06:05;100199.16;;;6.28;58.00
59168;BME280;44948;55.046;73.266;2023-03-25T07:09:13;100183.84;;;6.53;57.57
59168;BME280;44948;55.046;73.266;2023-03-25T07:12:16;100198.81;;;6.65;56.57
59168;BME280;44948;55.046;73.266;2023-03-25T07:15:21;100199.66;;;6.50;56.85
59168;BME280;44948;55.046;73.266;2023-03-25T07:18:24;100197.50;;;6.42;57.07
59168;BME280;44948;55.046;73.266;2023-03-25T07:21:27;100189.25;;;6.34;57.34
59168;BME280;44948;55.046;73.266;2023-03-25T07:24:29;100178.81;;;6.34;57.21
59168;BME280;44948;55.046;73.266;2023-03-25T07:27:32;100197.41;;;6.44;57.67
59168;BME280;44948;55.046;73.266;2023-03-25T07:30:40;100191.75;;;6.36;56.81
59168;BME280;44948;55.046;73.266;2023-03-25T07:33:43;100175.53;;;5.99;58.07
59168;BME280;44948;55.046;73.266;2023-03-25T07:36:45;100181.25;;;6.21;57.85
59168;BME280;44948;55.046;73.266;2023-03-25T07:39:50;100165.88;;;6.33;57.88
59168;BME280;44948;55.046;73.266;2023-03-25T07:42:53;100175.97;;;6.23;58.12
59168;BME280;44948;55.046;73.266;2023-03-25T07:46:10;100171.75;;;6.20;58.30
59168;BME280;44948;55.046;73.266;2023-03-25T07:49:16;100174.13;;;6.25;57.62
59168;BME280;44948;55.046;73.266;2023-03-25T07:52:18;100177.31;;;6.14;58.07
59168;BME280;44948;55.046;73.266;2023-03-25T07:55:21;100172.75;;;6.02;57.84
59168;BME280;44948;55.046;73.266;2023-03-25T07:58:24;100182.84;;;6.08;58.42
59168;BME280;44948;55.046;73.266;2023-03-25T08:01:35;100172.00;;;6.16;58.86
59168;BME280;44948;55.046;73.266;2023-03-25T08:04:38;100167.06;;;6.11;58.39
59168;BME280;44948;55.046;73.266;2023-03-25T08:07:40;100166.41;;;6.08;59.16
59168;BME280;44948;55.046;73.266;2023-03-25T08:10:55;100155.91;;;6.09;58.73
59168;BME280;44948;55.046;73.266;2023-03-25T08:13:58;100165.22;;;6.13;58.71
59168;BME280;44948;55.046;73.266;2023-03-25T08:17:00;100161.69;;;6.14;58.38
59168;BME280;44948;55.046;73.266;2023-03-25T08:20:04;100144.94;;;6.03;58.81
59168;BME280;44948;55.046;73.266;2023-03-25T08:23:07;100126.06;;;5.99;58.37
59168;BME280;44948;55.046;73.266;2023-03-25T08:26:13;100149.59;;;6.13;59.10
59168;BME280;44948;55.046;73.266;2023-03-25T08:29:17;100135.38;;;6.19;58.64
59168;BME280;44948;55.046;73.266;2023-03-25T08:32:21;100141.03;;;6.11;58.96
59168;BME280;44948;55.046;73.266;2023-03-25T08:35:28;100144.38;;;5.98;58.99
59168;BME280;44948;55.046;73.266;2023-03-25T08:38:31;100141.75;;;5.82;59.54
59168;BME280;44948;55.046;73.266;2023-03-25T08:41:33;100135.78;;;5.80;59.66
59168;BME280;44948;55.046;73.266;2023-03-25T08:44:36;100130.75;;;5.77;59.54
59168;BME280;44948;55.046;73.266;2023-03-25T08:47:38;100136.13;;;5.74;60.06
59168;BME280;44948;55.046;73.266;2023-03-25T08:50:41;100145.28;;;5.81;59.77
59168;BME280;44948;55.046;73.266;2023-03-25T08:53:44;100127.22;;;5.78;59.42
59168;BME280;44948;55.046;73.266;2023-03-25T08:56:47;100128.22;;;5.75;60.21
59168;BME280;44948;55.046;73.266;2023-03-25T08:59:49;100119.00;;;5.85;59.83
59168;BME280;44948;55.046;73.266;2023-03-25T09:02:52;100114.81;;;5.99;59.91
59168;BME280;44948;55.046;73.266;2023-03-25T09:05:54;100124.66;;;6.09;59.00
59168;BME280;44948;55.046;73.266;2023-03-25T09:09:07;100125.72;;;6.05;58.83
59168;BME280;44948;55.046;73.266;2023-03-25T09:12:12;100132.09;;;6.00;59.45
59168;BME280;44948;55.046;73.266;2023-03-25T09:15:15;100116.91;;;5.92;59.42
59168;BME280;44948;55.046;73.266;2023-03-25T09:18:27;100111.63;;;5.93;59.70
59168;BME280;44948;55.046;73.266;2023-03-25T09:21:35;100108.41;;;6.04;59.64
59168;BME280;44948;55.046;73.266;2023-03-25T09:24:48;100118.91;;;6.18;58.93
59168;BME280;44948;55.046;73.266;2023-03-25T09:27:50;100109.88;;;6.26;59.07
59168;BME280;44948;55.046;73.266;2023-03-25T09:30:53;100113.53;;;6.21;58.70
59168;BME280;44948;55.046;73.266;2023-03-25T09:33:56;100118.75;;;6.21;58.89
59168;BME280;44948;55.046;73.266;2023-03-25T09:37:08;100110.78;;;6.24;59.12
59168;BME280;44948;55.046;73.266;2023-03-25T09:40:15;100126.56;;;6.21;59.09
59168;BME280;44948;55.046;73.266;2023-03-25T09:43:58;100120.69;;;6.18;58.50
59168;BME280;44948;55.046;73.266;2023-03-25T09:47:08;100118.06;;;6.18;59.06
59168;BME280;44948;55.046;73.266;2023-03-25T09:50:22;100121.59;;;6.17;59.23
59168;BME280;44948;55.046;73.266;2023-03-25T09:53:44;100111.47;;;6.12;58.81
59168;BME280;44948;55.046;73.266;2023-03-25T09:56:48;100095.47;;;6.03;59.38
59168;BME280;44948;55.046;73.266;2023-03-25T09:59:58;100115.81;;;6.12;59.11
59168;BME280;44948;55.046;73.266;2023-03-25T10:03:19;100107.94;;;6.13;59.82
59168;BME280;44948;55.046;73.266;2023-03-25T10:06:30;100110.78;;;6.24;59.07
59168;BME280;44948;55.046;73.266;2023-03-25T10:09:49;100103.06;;;6.07;59.48
59168;BME280;44948;55.046;73.266;2023-03-25T10:13:31;100106.91;;;6.00;59.81
59168;BME280;44948;55.046;73.266;2023-03-25T10:26:17;100116.81;;;5.93;60.42
59168;BME280;44948;55.046;73.266;2023-03-25T10:29:43;100107.25;;;5.94;60.49
59168;BME280;44948;55.046;73.266;2023-03-25T10:32:55;100096.66;;;5.97;60.47
59168;BME280;44948;55.046;73.266;2023-03-25T10:36:05;100091.47;;;5.97;61.04
59168;BME280;44948;55.046;73.266;2023-03-25T10:39:20;100108.25;;;5.76;61.71
59168;BME280;44948;55.046;73.266;2023-03-25T10:42:29;100105.03;;;5.71;61.76
59168;BME280;44948;55.046;73.266;2023-03-25T10:45:33;100091.09;;;5.56;63.01
59168;BME280;44948;55.046;73.266;2023-03-25T10:48:37;100106.19;;;5.65;62.88
59168;BME280;44948;55.046;73.266;2023-03-25T10:51:40;100099.50;;;5.77;62.67
59168;BME280;44948;55.046;73.266;2023-03-25T10:54:45;100093.97;;;5.83;62.50
59168;BME280;44948;55.046;73.266;2023-03-25T10:57:49;100092.78;;;5.88;62.85
59168;BME280;44948;55.046;73.266;2023-03-25T11:00:52;100099.84;;;6.02;62.40
59168;BME280;44948;55.046;73.266;2023-03-25T11:03:55;100091.88;;;6.05;62.32
59168;BME280;44948;55.046;73.266;2023-03-25T11:07:26;100087.94;;;5.98;62.83
59168;BME280;44948;55.046;73.266;2023-03-25T11:10:31;100087.84;;;5.84;63.30
59168;BME280;44948;55.046;73.266;2023-03-25T11:13:35;100084.13;;;5.88;63.78
59168;BME280;44948;55.046;73.266;2023-03-25T11:16:53;100052.22;;;5.69;63.71
59168;BME280;44948;55.046;73.266;2023-03-25T11:20:04;100083.81;;;5.94;63.44
59168;BME280;44948;55.046;73.266;2023-03-25T11:23:31;100073.59;;;6.07;63.77
59168;BME280;44948;55.046;73.266;2023-03-25T11:26:38;100077.59;;;6.12;63.89
59168;BME280;44948;55.046;73.266;2023-03-25T11:29:52;100057.19;;;6.05;63.38
59168;BME280;44948;55.046;73.266;2023-03-25T11:33:04;100084.06;;;6.05;63.67
59168;BME280;44948;55.046;73.266;2023-03-25T11:37:00;100087.28;;;6.10;63.72
59168;BME280;44948;55.046;73.266;2023-03-25T11:39:48;100080.63;;;6.05;64.04
59168;BME280;44948;55.046;73.266;2023-03-25T11:42:57;100091.94;;;6.19;63.80
59168;BME280;44948;55.046;73.266;2023-03-25T11:46:17;100075.66;;;6.00;64.40
59168;BME280;44948;55.046;73.266;2023-03-25T11:49:22;100074.91;;;5.98;64.70
59168;BME280;44948;55.046;73.266;2023-03-25T11:52:43;100076.69;;;6.13;64.62
59168;BME280;44948;55.046;73.266;2023-03-25T11:55:52;100061.56;;;6.04;64.64
59168;BME280;44948;55.046;73.266;2023-03-25T11:58:58;100065.59;;;6.10;64.99
59168;BME280;44948;55.046;73.266;2023-03-25T12:02:28;100068.28;;;6.08;64.38
59168;BME280;44948;55.046;73.266;2023-03-25T12:05:33;100066.94;;;6.01;65.20
59168;BME280;44948;55.046;73.266;2023-03-25T12:08:49;100065.44;;;5.97;64.74
59168;BME280;44948;55.046;73.266;2023-03-25T12:15:21;100040.59;;;5.76;65.31
59168;BME280;44948;55.046;73.266;2023-03-25T12:18:43;100056.94;;;5.78;65.43
59168;BME280;44948;55.046;73.266;2023-03-25T12:25:14;100022.38;;;5.60;65.68
59168;BME280;44948;55.046;73.266;2023-03-25T12:28:57;100051.47;;;5.67;66.12
59168;BME280;44948;55.046;73.266;2023-03-25T12:32:01;100040.06;;;5.69;66.23
59168;BME280;44948;55.046;73.266;2023-03-25T12:56:18;100027.28;;;5.49;66.51
59168;BME280;44948;55.046;73.266;2023-03-25T13:02:53;100026.09;;;5.23;67.37
59168;BME280;44948;55.046;73.266;2023-03-25T13:06:11;100010.97;;;5.14;67.21
59168;BME280;44948;55.046;73.266;2023-03-25T13:12:58;100020.63;;;4.94;68.48
59168;BME280;44948;55.046;73.266;2023-03-25T13:16:12;100012.06;;;4.75;68.57
59168;BME280;44948;55.046;73.266;2023-03-25T13:19:30;100015.22;;;4.64;69.24
59168;BME280;44948;55.046;73.266;2023-03-25T13:22:49;100023.47;;;4.55;69.39
59168;BME280;44948;55.046;73.266;2023-03-25T13:26:06;100004.75;;;4.31;69.70
59168;BME280;44948;55.046;73.266;2023-03-25T13:29:41;100022.47;;;4.23;70.31
59168;BME280;44948;55.046;73.266;2023-03-25T13:32:47;100012.44;;;4.16;70.73
59168;BME280;44948;55.046;73.266;2023-03-25T13:46:17;100015.72;;;3.83;72.23
59168;BME280;44948;55.046;73.266;2023-03-25T13:49:54;100028.84;;;3.80;71.75
59168;BME280;44948;55.046;73.266;2023-03-25T13:53:22;100011.13;;;3.71;72.68
59168;BME280;44948;55.046;73.266;2023-03-25T14:11:24;100035.19;;;3.56;73.93
59168;BME280;44948;55.046;73.266;2023-03-25T14:14:25;100018.88;;;3.52;74.22
59168;BME280;44948;55.046;73.266;2023-03-25T14:17:40;100022.97;;;3.58;74.14
59168;BME280;44948;55.046;73.266;2023-03-25T14:20:53;100007.81;;;3.48;74.58
59168;BME280;44948;55.046;73.266;2023-03-25T14:27:17;100012.59;;;3.39;74.45
59168;BME280;44948;55.046;73.266;2023-03-25T14:30:26;100022.53;;;3.48;74.55
59168;BME280;44948;55.046;73.266;2023-03-25T14:37:22;100020.63;;;3.33;75.29
59168;BME280;44948;55.046;73.266;2023-03-25T14:44:16;100021.75;;;3.27;75.58
59168;BME280;44948;55.046;73.266;2023-03-25T14:47:26;100003.41;;;3.32;75.84
59168;BME280;44948;55.046;73.266;2023-03-25T14:50:30;99999.41;;;3.25;75.70
59168;BME280;44948;55.046;73.266;2023-03-25T14:53:34;99994.38;;;3.21;75.78
59168;BME280;44948;55.046;73.266;2023-03-25T14:56:52;99941.25;;;2.74;75.59
59168;BME280;44948;55.046;73.266;2023-03-25T15:00:00;100013.63;;;3.16;76.04
59168;BME280;44948;55.046;73.266;2023-03-25T15:03:16;100011.78;;;3.18;76.22
59168;BME280;44948;55.046;73.266;2023-03-25T15:06:32;100013.81;;;3.11;76.61
59168;BME280;44948;55.046;73.266;2023-03-25T15:09:49;100009.56;;;3.10;75.99
59168;BME280;44948;55.046;73.266;2023-03-25T15:13:05;100002.97;;;3.03;76.68
59168;BME280;44948;55.046;73.266;2023-03-25T15:16:33;99999.38;;;2.87;76.88
59168;BME280;44948;55.046;73.266;2023-03-25T15:37:02;99984.91;;;2.81;77.03
59168;BME280;44948;55.046;73.266;2023-03-25T15:40:22;99999.22;;;2.90;76.93
59168;BME280;44948;55.046;73.266;2023-03-25T15:54:52;99994.56;;;2.78;77.68
59168;BME280;44948;55.046;73.266;2023-03-25T15:57:58;99982.25;;;2.83;78.10
59168;BME280;44948;55.046;73.266;2023-03-25T16:01:16;99981.69;;;2.76;77.96
59168;BME280;44948;55.046;73.266;2023-03-25T16:04:39;99988.47;;;2.79;78.31
59168;BME280;44948;55.046;73.266;2023-03-25T16:07:48;99975.81;;;2.73;78.14
59168;BME280;44948;55.046;73.266;2023-03-25T16:10:51;99974.00;;;2.75;78.22
59168;BME280;44948;55.046;73.266;2023-03-25T16:14:05;99987.84;;;2.74;77.99
59168;BME280;44948;55.046;73.266;2023-03-25T16:17:11;99987.84;;;2.74;78.36
59168;BME280;44948;55.046;73.266;2023-03-25T16:20:28;99975.94;;;2.70;78.46
59168;BME280;44948;55.046;73.266;2023-03-25T16:23:35;99965.00;;;2.63;78.78
59168;BME280;44948;55.046;73.266;2023-03-25T16:26:46;99958.97;;;2.62;78.56
59168;BME280;44948;55.046;73.266;2023-03-25T16:29:53;99969.88;;;2.71;78.45
59168;BME280;44948;55.046;73.266;2023-03-25T16:33:24;99956.97;;;2.49;78.11
59168;BME280;44948;55.046;73.266;2023-03-25T16:36:28;99962.47;;;2.61;78.86
59168;BME280;44948;55.046;73.266;2023-03-25T16:39:35;99969.25;;;2.64;78.54
59168;BME280;44948;55.046;73.266;2023-03-25T16:42:38;99947.22;;;2.55;78.50
59168;BME280;44948;55.046;73.266;2023-03-25T16:45:42;99957.75;;;2.71;78.47
59168;BME280;44948;55.046;73.266;2023-03-25T16:48:52;99954.50;;;2.66;78.52
59168;BME280;44948;55.046;73.266;2023-03-25T16:51:56;99954.50;;;2.66;78.24
59168;BME280;44948;55.046;73.266;2023-03-25T16:55:25;99958.84;;;2.66;78.41
59168;BME280;44948;55.046;73.266;2023-03-25T16:58:33;99943.72;;;2.56;78.85
59168;BME280;44948;55.046;73.266;2023-03-25T17:01:51;99950.94;;;2.69;78.76
59168;BME280;44948;55.046;73.266;2023-03-25T17:04:53;99953.41;;;2.72;78.45
59168;BME280;44948;55.046;73.266;2023-03-25T17:07:59;99947.31;;;2.73;78.43
59168;BME280;44948;55.046;73.266;2023-03-25T17:11:08;99952.50;;;2.73;78.30
59168;BME280;44948;55.046;73.266;2023-03-25T17:14:18;99949.16;;;2.71;78.42
59168;BME280;44948;55.046;73.266;2023-03-25T17:17:38;99950.94;;;2.69;78.22
59168;BME280;44948;55.046;73.266;2023-03-25T17:20:45;99944.88;;;2.70;78.35
59168;BME280;44948;55.046;73.266;2023-03-25T17:23:48;99946.81;;;2.65;78.59
59168;BME280;44948;55.046;73.266;2023-03-25T17:27:05;99944.41;;;2.60;78.68
59168;BME280;44948;55.046;73.266;2023-03-25T17:30:58;99940.84;;;2.62;78.68
59168;BME280;44948;55.046;73.266;2023-03-25T17:34:09;99946.16;;;2.59;78.60
59168;BME280;44948;55.046;73.266;2023-03-25T17:37:12;99941.69;;;2.63;78.56
59168;BME280;44948;55.046;73.266;2023-03-25T17:40:22;99944.97;;;2.67;78.63
59168;BME280;44948;55.046;73.266;2023-03-25T17:43:28;99941.41;;;2.69;78.59
59168;BME280;44948;55.046;73.266;2023-03-25T17:46:44;99937.03;;;2.71;78.22
59168;BME280;44948;55.046;73.266;2023-03-25T17:49:57;99938.19;;;2.64;78.56
59168;BME280;44948;55.046;73.266;2023-03-25T17:53:00;99923.78;;;2.58;78.17
59168;BME280;44948;55.046;73.266;2023-03-25T17:56:10;99931.34;;;2.63;78.42
59168;BME280;44948;55.046;73.266;2023-03-25T17:59:16;99925.53;;;2.58;78.30
59168;BME280;44948;55.046;73.266;2023-03-25T18:02:29;99934.19;;;2.57;78.80
59168;BME280;44948;55.046;73.266;2023-03-25T18:05:34;99928.03;;;2.59;78.59
59168;BME280;44948;55.046;73.266;2023-03-25T18:08:41;99924.09;;;2.51;78.47
59168;BME280;44948;55.046;73.266;2023-03-25T18:11:46;99931.53;;;2.58;78.36
59168;BME280;44948;55.046;73.266;2023-03-25T18:14:48;99926.63;;;2.52;78.38
59168;BME280;44948;55.046;73.266;2023-03-25T18:17:51;99924.09;;;2.51;78.02
59168;BME280;44948;55.046;73.266;2023-03-25T18:20:56;99919.88;;;2.48;78.21
59168;BME280;44948;55.046;73.266;2023-03-25T18:24:00;99918.16;;;2.49;78.50
59168;BME280;44948;55.046;73.266;2023-03-25T18:27:09;99916.25;;;2.52;78.15
59168;BME280;44948;55.046;73.266;2023-03-25T18:30:29;99901.28;;;2.40;78.00
59168;BME280;44948;55.046;73.266;2023-03-25T18:33:44;99892.84;;;2.35;78.15
59168;BME280;44948;55.046;73.266;2023-03-25T18:36:47;99914.84;;;2.45;78.64
59168;BME280;44948;55.046;73.266;2023-03-25T18:39:50;99905.75;;;2.37;78.22
59168;BME280;44948;55.046;73.266;2023-03-25T18:42:55;99908.38;;;2.35;78.17
59168;BME280;44948;55.046;73.266;2023-03-25T18:45:58;99909.94;;;2.39;78.47
59168;BME280;44948;55.046;73.266;2023-03-25T18:49:00;99898.03;;;2.35;78.31
59168;BME280;44948;55.046;73.266;2023-03-25T18:52:03;99906.31;;;2.43;78.37
59168;BME280;44948;55.046;73.266;2023-03-25T18:55:06;99904.50;;;2.45;78.02
59168;BME280;44948;55.046;73.266;2023-03-25T18:58:22;99897.72;;;2.43;77.83
59168;BME280;44948;55.046;73.266;2023-03-25T19:01:25;99894.44;;;2.39;77.67